Cedar Grove, Louisiana
Current Conditions -  °F | °C
As of 3:36 PM on Saturday 22 Nov 2014 (Local Time) from KSHV Reporting Station
Broken Clouds Broken Clouds  
Wind Chill: 68°   Ceiling: 3000
Heat Index: 68°   Visibility: 10mi
Dew Point: 58°   Wind: 12mph
Humidity: 70%   Direction: 140°SE
Pressure: 29.94"   Gusts: NA
Location:  32.3873°N, 93.7356°W
Report Text: KSHV 222136Z 14010KT 10SM BKN030 BKN039 BKN047 20/14 A2994 RMK AO2 T02000144
Loading
Personal Weather Stations






























Interactive Weather Map New forecast layout! Learn more

10-Day Weather Forecast

Advertisements
Track Severe Weather on mobile